sensor_id;sensor_type;location;lat;lon;timestamp;temperature;humidity
17740;DHT22;8990;33.226;-97.150;2024-03-23T00:54:03;19.00;99.90
17740;DHT22;8990;33.226;-97.150;2024-03-23T00:56:31;18.90;99.90
17740;DHT22;8990;33.226;-97.150;2024-03-23T00:58:59;18.90;99.90
17740;DHT22;8990;33.226;-97.150;2024-03-23T01:01:28;18.80;99.90
17740;DHT22;8990;33.226;-97.150;2024-03-23T01:03:55;18.70;99.90
17740;DHT22;8990;33.226;-97.150;2024-03-23T01:06:24;18.60;99.90
17740;DHT22;8990;33.226;-97.150;2024-03-23T01:08:52;18.60;99.90
17740;DHT22;8990;33.226;-97.150;2024-03-23T01:11:22;18.40;99.90
17740;DHT22;8990;33.226;-97.150;2024-03-23T01:13:50;18.40;99.90
17740;DHT22;8990;33.226;-97.150;2024-03-23T01:16:19;18.30;99.90
17740;DHT22;8990;33.226;-97.150;2024-03-23T01:18:46;18.20;99.90
17740;DHT22;8990;33.226;-97.150;2024-03-23T01:21:16;18.10;99.90
17740;DHT22;8990;33.226;-97.150;2024-03-23T01:23:43;18.00;99.90
17740;DHT22;8990;33.226;-97.150;2024-03-23T01:26:12;17.90;99.90
17740;DHT22;8990;33.226;-97.150;2024-03-23T01:28:42;17.80;99.90
17740;DHT22;8990;33.226;-97.150;2024-03-23T01:31:10;17.70;99.90
17740;DHT22;8990;33.226;-97.150;2024-03-23T01:33:38;17.70;99.90
17740;DHT22;8990;33.226;-97.150;2024-03-23T01:36:07;17.70;99.90
17740;DHT22;8990;33.226;-97.150;2024-03-23T01:38:35;17.60;99.90
17740;DHT22;8990;33.226;-97.150;2024-03-23T01:41:04;17.60;99.90
17740;DHT22;8990;33.226;-97.150;2024-03-23T01:43:32;17.60;99.90
17740;DHT22;8990;33.226;-97.150;2024-03-23T01:46:03;17.60;99.90
17740;DHT22;8990;33.226;-97.150;2024-03-23T01:48:32;17.60;99.90
17740;DHT22;8990;33.226;-97.150;2024-03-23T01:51:01;17.60;99.90
17740;DHT22;8990;33.226;-97.150;2024-03-23T01:53:29;17.70;99.90
17740;DHT22;8990;33.226;-97.150;2024-03-23T01:55:58;17.70;99.90
17740;DHT22;8990;33.226;-97.150;2024-03-23T01:58:26;17.80;99.90
17740;DHT22;8990;33.226;-97.150;2024-03-23T02:00:54;17.80;99.90
17740;DHT22;8990;33.226;-97.150;2024-03-23T02:03:24;17.80;99.90
17740;DHT22;8990;33.226;-97.150;2024-03-23T02:05:54;17.80;99.90
17740;DHT22;8990;33.226;-97.150;2024-03-23T02:08:23;17.70;99.90
17740;DHT22;8990;33.226;-97.150;2024-03-23T02:10:52;17.70;99.90
17740;DHT22;8990;33.226;-97.150;2024-03-23T02:13:20;17.70;99.90
17740;DHT22;8990;33.226;-97.150;2024-03-23T02:15:49;17.60;99.90
17740;DHT22;8990;33.226;-97.150;2024-03-23T02:18:17;17.60;99.90
17740;DHT22;8990;33.226;-97.150;2024-03-23T02:20:47;17.50;99.90
17740;DHT22;8990;33.226;-97.150;2024-03-23T02:23:17;17.40;99.90
17740;DHT22;8990;33.226;-97.150;2024-03-23T02:25:47;17.40;99.90
17740;DHT22;8990;33.226;-97.150;2024-03-23T02:28:14;17.30;99.90
17740;DHT22;8990;33.226;-97.150;2024-03-23T02:30:44;17.20;99.90
17740;DHT22;8990;33.226;-97.150;2024-03-23T02:33:11;17.20;99.90
17740;DHT22;8990;33.226;-97.150;2024-03-23T02:35:40;17.10;99.90
17740;DHT22;8990;33.226;-97.150;2024-03-23T02:38:08;17.10;99.90
17740;DHT22;8990;33.226;-97.150;2024-03-23T02:40:38;17.10;99.90
17740;DHT22;8990;33.226;-97.150;2024-03-23T02:43:06;17.10;99.90
17740;DHT22;8990;33.226;-97.150;2024-03-23T02:45:35;17.00;99.90
17740;DHT22;8990;33.226;-97.150;2024-03-23T02:48:03;17.00;99.90
17740;DHT22;8990;33.226;-97.150;2024-03-23T02:50:32;16.90;99.90
17740;DHT22;8990;33.226;-97.150;2024-03-23T02:53:00;16.90;99.90
17740;DHT22;8990;33.226;-97.150;2024-03-23T02:55:29;16.80;99.90
17740;DHT22;8990;33.226;-97.150;2024-03-23T02:57:58;16.80;99.90
17740;DHT22;8990;33.226;-97.150;2024-03-23T03:00:28;16.70;99.90
17740;DHT22;8990;33.226;-97.150;2024-03-23T03:02:56;16.60;99.90
17740;DHT22;8990;33.226;-97.150;2024-03-23T03:05:25;16.60;99.90
17740;DHT22;8990;33.226;-97.150;2024-03-23T03:07:53;16.50;99.90
17740;DHT22;8990;33.226;-97.150;2024-03-23T03:10:22;16.50;99.90
17740;DHT22;8990;33.226;-97.150;2024-03-23T03:12:50;16.40;99.90
17740;DHT22;8990;33.226;-97.150;2024-03-23T03:15:20;16.40;99.90
17740;DHT22;8990;33.226;-97.150;2024-03-23T03:17:48;16.40;99.90
17740;DHT22;8990;33.226;-97.150;2024-03-23T03:20:17;16.30;99.90
17740;DHT22;8990;33.226;-97.150;2024-03-23T03:22:44;16.30;99.90
17740;DHT22;8990;33.226;-97.150;2024-03-23T03:25:13;16.20;99.90
17740;DHT22;8990;33.226;-97.150;2024-03-23T03:27:41;16.20;99.90
17740;DHT22;8990;33.226;-97.150;2024-03-23T03:30:11;16.10;99.90
17740;DHT22;8990;33.226;-97.150;2024-03-23T03:32:40;16.10;99.90
17740;DHT22;8990;33.226;-97.150;2024-03-23T03:35:09;16.00;99.90
17740;DHT22;8990;33.226;-97.150;2024-03-23T03:37:36;15.90;99.90
17740;DHT22;8990;33.226;-97.150;2024-03-23T03:40:07;15.90;99.90
17740;DHT22;8990;33.226;-97.150;2024-03-23T03:42:36;15.90;99.90
17740;DHT22;8990;33.226;-97.150;2024-03-23T03:45:05;15.90;99.90
17740;DHT22;8990;33.226;-97.150;2024-03-23T03:47:33;15.80;99.90
17740;DHT22;8990;33.226;-97.150;2024-03-23T03:50:05;15.80;99.90
17740;DHT22;8990;33.226;-97.150;2024-03-23T03:52:32;15.70;99.90
17740;DHT22;8990;33.226;-97.150;2024-03-23T03:55:03;15.70;99.90
17740;DHT22;8990;33.226;-97.150;2024-03-23T03:57:30;15.60;99.90
17740;DHT22;8990;33.226;-97.150;2024-03-23T03:59:59;15.60;99.90
17740;DHT22;8990;33.226;-97.150;2024-03-23T04:02:27;15.60;99.90
17740;DHT22;8990;33.226;-97.150;2024-03-23T04:04:55;15.50;99.90
17740;DHT22;8990;33.226;-97.150;2024-03-23T04:07:25;15.50;99.90
17740;DHT22;8990;33.226;-97.150;2024-03-23T04:09:54;15.50;99.90
17740;DHT22;8990;33.226;-97.150;2024-03-23T04:12:21;15.40;99.90
17740;DHT22;8990;33.226;-97.150;2024-03-23T04:14:50;15.40;99.90
17740;DHT22;8990;33.226;-97.150;2024-03-23T04:17:18;15.40;99.90
17740;DHT22;8990;33.226;-97.150;2024-03-23T04:19:47;15.30;99.90
17740;DHT22;8990;33.226;-97.150;2024-03-23T04:22:16;15.30;99.90
17740;DHT22;8990;33.226;-97.150;2024-03-23T04:24:47;15.30;99.90
17740;DHT22;8990;33.226;-97.150;2024-03-23T04:27:15;15.20;99.90
17740;DHT22;8990;33.226;-97.150;2024-03-23T04:29:47;15.20;99.90
17740;DHT22;8990;33.226;-97.150;2024-03-23T04:32:15;15.20;99.90
17740;DHT22;8990;33.226;-97.150;2024-03-23T04:34:45;15.20;99.90
17740;DHT22;8990;33.226;-97.150;2024-03-23T04:37:12;15.10;99.90
17740;DHT22;8990;33.226;-97.150;2024-03-23T04:39:41;15.10;99.90
17740;DHT22;8990;33.226;-97.150;2024-03-23T04:42:11;15.00;99.90
17740;DHT22;8990;33.226;-97.150;2024-03-23T04:44:40;15.00;99.90
17740;DHT22;8990;33.226;-97.150;2024-03-23T04:47:09;15.00;99.90
17740;DHT22;8990;33.226;-97.150;2024-03-23T04:49:39;15.00;99.90
17740;DHT22;8990;33.226;-97.150;2024-03-23T04:52:08;15.00;99.90
17740;DHT22;8990;33.226;-97.150;2024-03-23T04:54:36;14.90;99.90
17740;DHT22;8990;33.226;-97.150;2024-03-23T04:57:04;14.90;99.90
17740;DHT22;8990;33.226;-97.150;2024-03-23T04:59:35;14.90;99.90
17740;DHT22;8990;33.226;-97.150;2024-03-23T05:02:02;14.90;99.90
17740;DHT22;8990;33.226;-97.150;2024-03-23T05:04:32;14.80;99.90
17740;DHT22;8990;33.226;-97.150;2024-03-23T05:06:59;14.70;99.90
17740;DHT22;8990;33.226;-97.150;2024-03-23T05:09:28;14.70;99.90
17740;DHT22;8990;33.226;-97.150;2024-03-23T05:11:57;14.60;99.90
17740;DHT22;8990;33.226;-97.150;2024-03-23T05:14:25;14.70;99.90
17740;DHT22;8990;33.226;-97.150;2024-03-23T05:16:55;14.60;99.90
17740;DHT22;8990;33.226;-97.150;2024-03-23T05:19:24;14.60;99.90
17740;DHT22;8990;33.226;-97.150;2024-03-23T05:21:52;14.50;99.90
17740;DHT22;8990;33.226;-97.150;2024-03-23T05:24:21;14.50;99.90
17740;DHT22;8990;33.226;-97.150;2024-03-23T05:26:49;14.40;99.90
17740;DHT22;8990;33.226;-97.150;2024-03-23T05:29:17;14.40;99.90
17740;DHT22;8990;33.226;-97.150;2024-03-23T05:31:51;14.40;99.90
17740;DHT22;8990;33.226;-97.150;2024-03-23T05:34:24;14.40;99.90
17740;DHT22;8990;33.226;-97.150;2024-03-23T05:36:52;14.30;99.90
17740;DHT22;8990;33.226;-97.150;2024-03-23T05:39:21;14.30;99.90
17740;DHT22;8990;33.226;-97.150;2024-03-23T05:41:49;14.30;99.90
17740;DHT22;8990;33.226;-97.150;2024-03-23T05:44:18;14.20;99.90
17740;DHT22;8990;33.226;-97.150;2024-03-23T05:46:46;14.20;99.90
17740;DHT22;8990;33.226;-97.150;2024-03-23T05:49:16;14.20;99.90
17740;DHT22;8990;33.226;-97.150;2024-03-23T05:51:45;14.10;99.90
17740;DHT22;8990;33.226;-97.150;2024-03-23T05:54:14;14.10;99.90
17740;DHT22;8990;33.226;-97.150;2024-03-23T05:56:42;14.10;99.90
17740;DHT22;8990;33.226;-97.150;2024-03-23T05:59:11;14.00;99.90
17740;DHT22;8990;33.226;-97.150;2024-03-23T06:01:38;13.90;99.90
17740;DHT22;8990;33.226;-97.150;2024-03-23T06:04:07;13.90;99.90
17740;DHT22;8990;33.226;-97.150;2024-03-23T06:06:35;13.90;99.90
17740;DHT22;8990;33.226;-97.150;2024-03-23T06:09:05;13.80;99.90
17740;DHT22;8990;33.226;-97.150;2024-03-23T06:11:33;13.80;99.90
17740;DHT22;8990;33.226;-97.150;2024-03-23T06:14:02;13.70;99.90
17740;DHT22;8990;33.226;-97.150;2024-03-23T06:16:29;13.70;99.90
17740;DHT22;8990;33.226;-97.150;2024-03-23T06:18:58;13.70;99.90
17740;DHT22;8990;33.226;-97.150;2024-03-23T06:21:26;13.70;99.90
17740;DHT22;8990;33.226;-97.150;2024-03-23T06:23:55;13.70;99.90
17740;DHT22;8990;33.226;-97.150;2024-03-23T06:26:24;13.60;99.90
17740;DHT22;8990;33.226;-97.150;2024-03-23T06:28:53;13.60;99.90
17740;DHT22;8990;33.226;-97.150;2024-03-23T06:31:22;13.50;99.90
17740;DHT22;8990;33.226;-97.150;2024-03-23T06:33:50;13.50;99.90
17740;DHT22;8990;33.226;-97.150;2024-03-23T06:36:19;13.50;99.90
17740;DHT22;8990;33.226;-97.150;2024-03-23T06:38:46;13.40;99.90
17740;DHT22;8990;33.226;-97.150;2024-03-23T06:41:15;13.40;99.90
17740;DHT22;8990;33.226;-97.150;2024-03-23T06:43:45;13.40;99.90
17740;DHT22;8990;33.226;-97.150;2024-03-23T06:46:14;13.30;99.90
17740;DHT22;8990;33.226;-97.150;2024-03-23T06:48:41;13.30;99.90
17740;DHT22;8990;33.226;-97.150;2024-03-23T06:51:10;13.30;99.90
17740;DHT22;8990;33.226;-97.150;2024-03-23T06:53:37;13.20;99.90
17740;DHT22;8990;33.226;-97.150;2024-03-23T06:56:07;13.20;99.90
17740;DHT22;8990;33.226;-97.150;2024-03-23T06:58:34;13.20;99.90
17740;DHT22;8990;33.226;-97.150;2024-03-23T07:01:05;13.20;99.90
17740;DHT22;8990;33.226;-97.150;2024-03-23T07:03:32;13.10;99.90
17740;DHT22;8990;33.226;-97.150;2024-03-23T07:06:01;13.10;99.90
17740;DHT22;8990;33.226;-97.150;2024-03-23T07:08:29;13.00;99.90
17740;DHT22;8990;33.226;-97.150;2024-03-23T07:10:58;13.00;99.90
17740;DHT22;8990;33.226;-97.150;2024-03-23T07:13:25;12.90;99.90
17740;DHT22;8990;33.226;-97.150;2024-03-23T07:15:55;12.90;99.90
17740;DHT22;8990;33.226;-97.150;2024-03-23T07:18:25;12.90;99.90
17740;DHT22;8990;33.226;-97.150;2024-03-23T07:20:54;12.90;99.90
17740;DHT22;8990;33.226;-97.150;2024-03-23T07:23:23;12.80;99.90
17740;DHT22;8990;33.226;-97.150;2024-03-23T07:25:58;12.80;99.90
17740;DHT22;8990;33.226;-97.150;2024-03-23T07:28:26;12.70;99.90
17740;DHT22;8990;33.226;-97.150;2024-03-23T07:31:05;12.70;99.90
17740;DHT22;8990;33.226;-97.150;2024-03-23T07:33:35;12.70;99.90
17740;DHT22;8990;33.226;-97.150;2024-03-23T07:36:05;12.60;99.90
17740;DHT22;8990;33.226;-97.150;2024-03-23T07:38:33;12.60;99.90
17740;DHT22;8990;33.226;-97.150;2024-03-23T07:41:05;12.60;99.90
17740;DHT22;8990;33.226;-97.150;2024-03-23T07:43:33;12.60;99.90
17740;DHT22;8990;33.226;-97.150;2024-03-23T07:46:02;12.50;99.90
17740;DHT22;8990;33.226;-97.150;2024-03-23T07:48:31;12.50;99.90
17740;DHT22;8990;33.226;-97.150;2024-03-23T07:51:03;12.50;99.90
17740;DHT22;8990;33.226;-97.150;2024-03-23T07:53:31;12.50;99.90
17740;DHT22;8990;33.226;-97.150;2024-03-23T07:56:02;12.40;99.90
17740;DHT22;8990;33.226;-97.150;2024-03-23T07:58:30;12.40;99.90
17740;DHT22;8990;33.226;-97.150;2024-03-23T08:01:04;12.40;99.90
17740;DHT22;8990;33.226;-97.150;2024-03-23T08:03:34;12.40;99.90
17740;DHT22;8990;33.226;-97.150;2024-03-23T08:06:13;12.30;99.90
17740;DHT22;8990;33.226;-97.150;2024-03-23T08:08:44;12.30;99.90
17740;DHT22;8990;33.226;-97.150;2024-03-23T08:11:17;12.20;99.90
17740;DHT22;8990;33.226;-97.150;2024-03-23T08:13:45;12.20;99.90
17740;DHT22;8990;33.226;-97.150;2024-03-23T08:16:14;12.20;99.90
17740;DHT22;8990;33.226;-97.150;2024-03-23T08:18:42;12.20;99.90
17740;DHT22;8990;33.226;-97.150;2024-03-23T08:21:13;12.10;99.90
17740;DHT22;8990;33.226;-97.150;2024-03-23T08:23:40;12.10;99.90
17740;DHT22;8990;33.226;-97.150;2024-03-23T08:26:10;12.10;99.90
17740;DHT22;8990;33.226;-97.150;2024-03-23T08:28:38;12.00;99.90
17740;DHT22;8990;33.226;-97.150;2024-03-23T08:31:08;12.00;99.90
17740;DHT22;8990;33.226;-97.150;2024-03-23T08:33:36;12.00;99.90
17740;DHT22;8990;33.226;-97.150;2024-03-23T08:36:07;12.00;99.90
17740;DHT22;8990;33.226;-97.150;2024-03-23T08:38:36;12.00;99.90
17740;DHT22;8990;33.226;-97.150;2024-03-23T08:41:06;11.90;99.90
17740;DHT22;8990;33.226;-97.150;2024-03-23T08:43:36;11.90;99.90
17740;DHT22;8990;33.226;-97.150;2024-03-23T08:46:07;11.90;99.90
17740;DHT22;8990;33.226;-97.150;2024-03-23T08:48:35;11.90;99.90
17740;DHT22;8990;33.226;-97.150;2024-03-23T08:51:05;11.90;99.90
17740;DHT22;8990;33.226;-97.150;2024-03-23T08:53:35;11.90;99.90
17740;DHT22;8990;33.226;-97.150;2024-03-23T08:56:05;11.90;99.90
17740;DHT22;8990;33.226;-97.150;2024-03-23T08:58:33;11.80;99.90
17740;DHT22;8990;33.226;-97.150;2024-03-23T09:01:07;11.80;99.90
17740;DHT22;8990;33.226;-97.150;2024-03-23T09:03:35;11.80;99.90
17740;DHT22;8990;33.226;-97.150;2024-03-23T09:06:08;11.70;99.90
17740;DHT22;8990;33.226;-97.150;2024-03-23T09:08:37;11.70;99.90
17740;DHT22;8990;33.226;-97.150;2024-03-23T09:11:08;11.70;99.90
17740;DHT22;8990;33.226;-97.150;2024-03-23T09:13:37;11.60;99.90
17740;DHT22;8990;33.226;-97.150;2024-03-23T09:16:07;11.60;99.90
17740;DHT22;8990;33.226;-97.150;2024-03-23T09:18:36;11.50;99.90
17740;DHT22;8990;33.226;-97.150;2024-03-23T09:21:11;11.50;99.90
17740;DHT22;8990;33.226;-97.150;2024-03-23T09:23:44;11.40;99.90
17740;DHT22;8990;33.226;-97.150;2024-03-23T09:26:13;11.40;99.90
17740;DHT22;8990;33.226;-97.150;2024-03-23T09:28:40;11.30;99.90
17740;DHT22;8990;33.226;-97.150;2024-03-23T09:31:09;11.30;99.90
17740;DHT22;8990;33.226;-97.150;2024-03-23T09:33:41;11.30;99.90
17740;DHT22;8990;33.226;-97.150;2024-03-23T09:36:10;11.20;99.90
17740;DHT22;8990;33.226;-97.150;2024-03-23T09:38:37;11.20;99.90
17740;DHT22;8990;33.226;-97.150;2024-03-23T09:41:09;11.20;99.90
17740;DHT22;8990;33.226;-97.150;2024-03-23T09:43:37;11.10;99.90
17740;DHT22;8990;33.226;-97.150;2024-03-23T09:46:06;11.10;99.90
17740;DHT22;8990;33.226;-97.150;2024-03-23T09:48:34;11.10;99.90
17740;DHT22;8990;33.226;-97.150;2024-03-23T09:51:03;11.00;99.90
17740;DHT22;8990;33.226;-97.150;2024-03-23T09:53:32;11.00;99.90
17740;DHT22;8990;33.226;-97.150;2024-03-23T09:56:00;11.00;99.90
17740;DHT22;8990;33.226;-97.150;2024-03-23T09:58:30;11.00;99.90
17740;DHT22;8990;33.226;-97.150;2024-03-23T10:00:59;10.90;99.90
17740;DHT22;8990;33.226;-97.150;2024-03-23T10:03:27;10.80;99.90
17740;DHT22;8990;33.226;-97.150;2024-03-23T10:06:02;10.80;99.90
17740;DHT22;8990;33.226;-97.150;2024-03-23T10:08:32;10.80;99.90
17740;DHT22;8990;33.226;-97.150;2024-03-23T10:11:13;10.70;99.90
17740;DHT22;8990;33.226;-97.150;2024-03-23T10:13:44;10.70;99.90
17740;DHT22;8990;33.226;-97.150;2024-03-23T10:16:21;10.60;99.90
17740;DHT22;8990;33.226;-97.150;2024-03-23T10:18:50;10.60;99.90
17740;DHT22;8990;33.226;-97.150;2024-03-23T10:21:19;10.60;99.90
17740;DHT22;8990;33.226;-97.150;2024-03-23T10:23:47;10.50;99.90
17740;DHT22;8990;33.226;-97.150;2024-03-23T10:26:20;10.50;99.90
17740;DHT22;8990;33.226;-97.150;2024-03-23T10:28:55;10.50;99.90
17740;DHT22;8990;33.226;-97.150;2024-03-23T10:31:28;10.40;99.90
17740;DHT22;8990;33.226;-97.150;2024-03-23T10:33:57;10.30;99.90
17740;DHT22;8990;33.226;-97.150;2024-03-23T10:36:25;10.30;99.90
17740;DHT22;8990;33.226;-97.150;2024-03-23T10:38:54;10.20;99.90
17740;DHT22;8990;33.226;-97.150;2024-03-23T10:41:24;10.20;99.90
17740;DHT22;8990;33.226;-97.150;2024-03-23T10:43:56;10.20;99.90
17740;DHT22;8990;33.226;-97.150;2024-03-23T10:46:25;10.10;99.90
17740;DHT22;8990;33.226;-97.150;2024-03-23T10:48:54;10.10;99.90
17740;DHT22;8990;33.226;-97.150;2024-03-23T10:51:21;10.10;99.90
17740;DHT22;8990;33.226;-97.150;2024-03-23T10:53:51;10.10;99.90
17740;DHT22;8990;33.226;-97.150;2024-03-23T10:56:20;10.10;99.90
17740;DHT22;8990;33.226;-97.150;2024-03-23T10:58:50;10.00;99.90
17740;DHT22;8990;33.226;-97.150;2024-03-23T11:01:19;10.00;99.90
17740;DHT22;8990;33.226;-97.150;2024-03-23T11:03:49;10.00;99.90
17740;DHT22;8990;33.226;-97.150;2024-03-23T11:06:34;9.90;99.90
17740;DHT22;8990;33.226;-97.150;2024-03-23T11:09:03;9.90;99.90
17740;DHT22;8990;33.226;-97.150;2024-03-23T11:11:31;9.80;99.90
17740;DHT22;8990;33.226;-97.150;2024-03-23T11:14:01;9.80;99.90
17740;DHT22;8990;33.226;-97.150;2024-03-23T11:17:08;9.70;99.90
17740;DHT22;8990;33.226;-97.150;2024-03-23T11:19:37;9.70;99.90
17740;DHT22;8990;33.226;-97.150;2024-03-23T11:22:06;9.70;99.90
17740;DHT22;8990;33.226;-97.150;2024-03-23T11:24:35;9.70;99.90
17740;DHT22;8990;33.226;-97.150;2024-03-23T11:27:16;9.60;99.90
17740;DHT22;8990;33.226;-97.150;2024-03-23T11:29:45;9.70;99.90
17740;DHT22;8990;33.226;-97.150;2024-03-23T11:32:14;9.60;99.90
17740;DHT22;8990;33.226;-97.150;2024-03-23T11:34:43;9.50;99.90
17740;DHT22;8990;33.226;-97.150;2024-03-23T11:37:10;9.50;99.90
17740;DHT22;8990;33.226;-97.150;2024-03-23T11:39:39;9.50;99.90
17740;DHT22;8990;33.226;-97.150;2024-03-23T11:42:07;9.50;99.90
17740;DHT22;8990;33.226;-97.150;2024-03-23T11:44:36;9.50;99.90
17740;DHT22;8990;33.226;-97.150;2024-03-23T11:47:08;9.40;99.90
17740;DHT22;8990;33.226;-97.150;2024-03-23T11:49:39;9.50;99.90
17740;DHT22;8990;33.226;-97.150;2024-03-23T11:52:08;9.40;99.90
17740;DHT22;8990;33.226;-97.150;2024-03-23T11:54:37;9.30;99.90
17740;DHT22;8990;33.226;-97.150;2024-03-23T11:57:07;9.30;99.90
17740;DHT22;8990;33.226;-97.150;2024-03-23T11:59:37;9.20;99.90
17740;DHT22;8990;33.226;-97.150;2024-03-23T12:02:09;9.20;99.90
17740;DHT22;8990;33.226;-97.150;2024-03-23T12:04:40;9.20;99.90
17740;DHT22;8990;33.226;-97.150;2024-03-23T12:07:11;9.10;99.90
17740;DHT22;8990;33.226;-97.150;2024-03-23T12:09:38;9.10;99.90
17740;DHT22;8990;33.226;-97.150;2024-03-23T12:12:13;9.10;99.90
17740;DHT22;8990;33.226;-97.150;2024-03-23T12:14:42;9.10;99.90
17740;DHT22;8990;33.226;-97.150;2024-03-23T12:17:12;9.00;99.90
17740;DHT22;8990;33.226;-97.150;2024-03-23T12:19:43;9.00;99.90
17740;DHT22;8990;33.226;-97.150;2024-03-23T12:22:12;8.90;99.90
17740;DHT22;8990;33.226;-97.150;2024-03-23T12:24:40;8.90;99.90
17740;DHT22;8990;33.226;-97.150;2024-03-23T12:27:12;8.90;99.90
17740;DHT22;8990;33.226;-97.150;2024-03-23T12:29:39;8.90;99.90
17740;DHT22;8990;33.226;-97.150;2024-03-23T12:32:10;8.90;99.90
17740;DHT22;8990;33.226;-97.150;2024-03-23T12:34:37;8.80;99.90
17740;DHT22;8990;33.226;-97.150;2024-03-23T12:37:08;8.90;99.90
17740;DHT22;8990;33.226;-97.150;2024-03-23T12:39:36;8.80;99.90
17740;DHT22;8990;33.226;-97.150;2024-03-23T12:42:05;8.80;99.90
17740;DHT22;8990;33.226;-97.150;2024-03-23T12:44:33;8.70;99.90
17740;DHT22;8990;33.226;-97.150;2024-03-23T12:47:01;8.70;99.90
17740;DHT22;8990;33.226;-97.150;2024-03-23T12:49:29;8.70;99.90
17740;DHT22;8990;33.226;-97.150;2024-03-23T12:51:58;8.80;99.90
17740;DHT22;8990;33.226;-97.150;2024-03-23T12:54:28;8.80;99.90
17740;DHT22;8990;33.226;-97.150;2024-03-23T12:56:58;8.80;99.90
17740;DHT22;8990;33.226;-97.150;2024-03-23T12:59:26;8.80;99.90
17740;DHT22;8990;33.226;-97.150;2024-03-23T13:01:56;8.80;99.90
17740;DHT22;8990;33.226;-97.150;2024-03-23T13:04:24;8.90;99.90
17740;DHT22;8990;33.226;-97.150;2024-03-23T13:06:53;8.90;99.90
17740;DHT22;8990;33.226;-97.150;2024-03-23T13:09:20;8.90;99.90
17740;DHT22;8990;33.226;-97.150;2024-03-23T13:11:51;9.00;99.90
17740;DHT22;8990;33.226;-97.150;2024-03-23T13:14:18;9.00;99.90
17740;DHT22;8990;33.226;-97.150;2024-03-23T13:16:48;9.00;99.90
17740;DHT22;8990;33.226;-97.150;2024-03-23T13:19:16;9.10;99.90
17740;DHT22;8990;33.226;-97.150;2024-03-23T13:21:47;9.10;99.90
17740;DHT22;8990;33.226;-97.150;2024-03-23T13:24:15;9.10;99.90
17740;DHT22;8990;33.226;-97.150;2024-03-23T13:26:44;9.10;99.90
17740;DHT22;8990;33.226;-97.150;2024-03-23T13:29:13;9.10;99.90
17740;DHT22;8990;33.226;-97.150;2024-03-23T13:31:42;9.10;99.90
17740;DHT22;8990;33.226;-97.150;2024-03-23T13:34:10;9.20;99.90
17740;DHT22;8990;33.226;-97.150;2024-03-23T13:36:40;9.20;99.90
17740;DHT22;8990;33.226;-97.150;2024-03-23T13:39:08;9.20;99.90
17740;DHT22;8990;33.226;-97.150;2024-03-23T13:41:39;9.20;99.90
17740;DHT22;8990;33.226;-97.150;2024-03-23T13:44:07;9.30;99.90
17740;DHT22;8990;33.226;-97.150;2024-03-23T13:46:39;9.30;99.90
17740;DHT22;8990;33.226;-97.150;2024-03-23T13:49:07;9.40;99.90
17740;DHT22;8990;33.226;-97.150;2024-03-23T13:51:35;9.40;99.90
17740;DHT22;8990;33.226;-97.150;2024-03-23T13:54:03;9.50;99.90
17740;DHT22;8990;33.226;-97.150;2024-03-23T13:56:32;9.60;99.90
17740;DHT22;8990;33.226;-97.150;2024-03-23T13:59:00;9.70;99.90
17740;DHT22;8990;33.226;-97.150;2024-03-23T14:01:30;9.80;99.90
17740;DHT22;8990;33.226;-97.150;2024-03-23T14:04:00;9.90;99.90
17740;DHT22;8990;33.226;-97.150;2024-03-23T14:06:29;9.90;99.90
17740;DHT22;8990;33.226;-97.150;2024-03-23T14:08:56;10.00;99.90
17740;DHT22;8990;33.226;-97.150;2024-03-23T14:11:26;10.00;99.90
17740;DHT22;8990;33.226;-97.150;2024-03-23T14:13:55;10.00;99.90
17740;DHT22;8990;33.226;-97.150;2024-03-23T14:16:24;10.00;99.90
17740;DHT22;8990;33.226;-97.150;2024-03-23T14:18:52;10.10;99.90
17740;DHT22;8990;33.226;-97.150;2024-03-23T14:21:22;10.10;99.90
17740;DHT22;8990;33.226;-97.150;2024-03-23T14:23:51;10.10;99.90
17740;DHT22;8990;33.226;-97.150;2024-03-23T14:26:20;10.20;99.90
17740;DHT22;8990;33.226;-97.150;2024-03-23T14:28:49;10.20;99.90
17740;DHT22;8990;33.226;-97.150;2024-03-23T14:31:18;10.30;99.90
17740;DHT22;8990;33.226;-97.150;2024-03-23T14:33:46;10.40;99.90
17740;DHT22;8990;33.226;-97.150;2024-03-23T14:36:16;10.50;99.90
17740;DHT22;8990;33.226;-97.150;2024-03-23T14:38:49;10.50;99.90
17740;DHT22;8990;33.226;-97.150;2024-03-23T14:41:19;10.50;99.90
17740;DHT22;8990;33.226;-97.150;2024-03-23T14:43:47;10.60;99.90
17740;DHT22;8990;33.226;-97.150;2024-03-23T14:46:17;10.70;99.90
17740;DHT22;8990;33.226;-97.150;2024-03-23T14:48:46;10.80;99.90
17740;DHT22;8990;33.226;-97.150;2024-03-23T14:51:15;10.80;99.90
17740;DHT22;8990;33.226;-97.150;2024-03-23T14:53:45;10.90;99.90
17740;DHT22;8990;33.226;-97.150;2024-03-23T14:56:16;11.00;99.90
17740;DHT22;8990;33.226;-97.150;2024-03-23T14:58:45;11.10;99.90
17740;DHT22;8990;33.226;-97.150;2024-03-23T15:01:14;11.10;99.90
17740;DHT22;8990;33.226;-97.150;2024-03-23T15:03:42;11.20;99.90
17740;DHT22;8990;33.226;-97.150;2024-03-23T15:06:11;11.20;99.90
17740;DHT22;8990;33.226;-97.150;2024-03-23T15:08:39;11.20;99.90
17740;DHT22;8990;33.226;-97.150;2024-03-23T15:11:08;11.20;99.90
17740;DHT22;8990;33.226;-97.150;2024-03-23T15:13:38;11.30;99.90
17740;DHT22;8990;33.226;-97.150;2024-03-23T15:16:07;11.40;99.90
17740;DHT22;8990;33.226;-97.150;2024-03-23T15:18:34;11.50;99.90
17740;DHT22;8990;33.226;-97.150;2024-03-23T15:21:04;11.60;99.90
17740;DHT22;8990;33.226;-97.150;2024-03-23T15:23:33;11.60;99.90
17740;DHT22;8990;33.226;-97.150;2024-03-23T15:26:03;11.60;99.90
17740;DHT22;8990;33.226;-97.150;2024-03-23T15:28:31;11.60;99.90
17740;DHT22;8990;33.226;-97.150;2024-03-23T15:31:10;11.70;99.90
17740;DHT22;8990;33.226;-97.150;2024-03-23T15:33:37;11.70;99.90
17740;DHT22;8990;33.226;-97.150;2024-03-23T15:36:07;11.80;99.90
17740;DHT22;8990;33.226;-97.150;2024-03-23T15:38:35;11.80;99.90
17740;DHT22;8990;33.226;-97.150;2024-03-23T15:41:05;11.80;99.90
17740;DHT22;8990;33.226;-97.150;2024-03-23T15:43:33;11.90;99.90
17740;DHT22;8990;33.226;-97.150;2024-03-23T15:46:02;12.00;99.90
17740;DHT22;8990;33.226;-97.150;2024-03-23T15:48:32;12.00;99.90
17740;DHT22;8990;33.226;-97.150;2024-03-23T15:51:02;12.10;99.90
17740;DHT22;8990;33.226;-97.150;2024-03-23T15:53:31;12.20;99.90
17740;DHT22;8990;33.226;-97.150;2024-03-23T15:56:01;12.30;99.90
17740;DHT22;8990;33.226;-97.150;2024-03-23T15:58:29;12.40;99.90
17740;DHT22;8990;33.226;-97.150;2024-03-23T16:00:59;12.40;99.90
17740;DHT22;8990;33.226;-97.150;2024-03-23T16:03:28;12.50;99.90
17740;DHT22;8990;33.226;-97.150;2024-03-23T16:06:00;12.70;99.90
17740;DHT22;8990;33.226;-97.150;2024-03-23T16:08:28;12.80;99.90
17740;DHT22;8990;33.226;-97.150;2024-03-23T16:11:00;12.80;99.90
17740;DHT22;8990;33.226;-97.150;2024-03-23T16:13:28;12.90;99.90
17740;DHT22;8990;33.226;-97.150;2024-03-23T16:15:57;13.00;99.90
17740;DHT22;8990;33.226;-97.150;2024-03-23T16:18:25;13.10;99.90
17740;DHT22;8990;33.226;-97.150;2024-03-23T16:20:55;13.20;99.90
17740;DHT22;8990;33.226;-97.150;2024-03-23T16:23:25;13.20;99.90
17740;DHT22;8990;33.226;-97.150;2024-03-23T16:25:55;13.30;99.90